createdAt,value
2019-04-30T00:00:41.419Z,0.00
2019-04-30T00:01:41.505Z,0.00
2019-04-30T00:02:41.531Z,0.00
2019-04-30T00:03:41.567Z,0.00
2019-04-30T00:04:41.561Z,0.00
2019-04-30T00:05:41.631Z,0.00
2019-04-30T00:06:41.960Z,0.00
2019-04-30T00:07:41.646Z,0.00
2019-04-30T00:08:41.731Z,0.00
2019-04-30T00:09:41.711Z,0.00
2019-04-30T00:10:41.741Z,0.00
2019-04-30T00:11:41.842Z,0.00
2019-04-30T00:12:42.114Z,0.00
2019-04-30T00:13:41.892Z,0.00
2019-04-30T00:14:41.918Z,0.00
2019-04-30T00:15:41.904Z,0.00
2019-04-30T00:16:41.990Z,0.00
2019-04-30T00:17:41.979Z,0.00
2019-04-30T00:18:55.172Z,0.00
2019-04-30T00:19:42.081Z,0.00
2019-04-30T00:20:44.675Z,0.00
2019-04-30T00:21:42.143Z,0.00
2019-04-30T00:22:47.199Z,0.00
2019-04-30T00:23:42.214Z,0.00
2019-04-30T00:24:46.889Z,0.00
2019-04-30T00:25:42.285Z,0.00
2019-04-30T00:26:45.399Z,0.00
2019-04-30T00:27:42.295Z,0.00
2019-04-30T00:28:46.260Z,0.00
2019-04-30T00:29:42.354Z,0.00
2019-04-30T00:30:43.945Z,0.00
2019-04-30T00:31:42.722Z,0.00
2019-04-30T00:32:43.626Z,0.00
2019-04-30T00:34:42.564Z,0.00
2019-04-30T00:35:42.603Z,0.00
2019-04-30T00:37:42.669Z,0.00
2019-04-30T00:38:44.724Z,0.00
2019-04-30T00:39:44.380Z,0.00
2019-04-30T00:40:42.760Z,0.00
2019-04-30T00:41:44.101Z,0.00
2019-04-30T00:42:42.821Z,0.00
2019-04-30T00:43:49.342Z,0.00
2019-04-30T00:44:42.886Z,0.00
2019-04-30T00:45:44.828Z,0.00
2019-04-30T00:46:42.970Z,0.00
2019-04-30T00:47:44.548Z,0.00
2019-04-30T00:48:42.968Z,0.00
2019-04-30T00:49:42.998Z,0.00
2019-04-30T00:50:43.107Z,0.00
2019-04-30T00:51:45.288Z,0.00
2019-04-30T00:52:43.099Z,0.00
2019-04-30T00:53:43.907Z,0.00
2019-04-30T00:54:44.826Z,0.00
2019-04-30T00:55:44.931Z,0.00
2019-04-30T00:56:43.278Z,0.00
2019-04-30T00:57:44.102Z,0.00
2019-04-30T00:58:45.195Z,0.00
2019-04-30T00:59:46.571Z,0.00
2019-04-30T01:00:43.351Z,0.00
2019-04-30T01:01:47.922Z,0.00
2019-04-30T01:02:43.471Z,0.00
2019-04-30T01:03:46.861Z,0.00
2019-04-30T01:04:45.000Z,0.00
2019-04-30T01:05:47.602Z,0.00
2019-04-30T01:06:43.612Z,0.00
2019-04-30T01:07:48.718Z,0.00
2019-04-30T01:08:43.612Z,0.00
2019-04-30T01:09:49.283Z,0.00
2019-04-30T01:10:43.742Z,0.00
2019-04-30T01:11:46.736Z,0.00
2019-04-30T01:13:50.121Z,0.00
2019-04-30T01:14:43.858Z,0.00
2019-04-30T01:15:48.223Z,0.00
2019-04-30T01:16:43.921Z,0.00
2019-04-30T01:17:45.397Z,0.00
2019-04-30T01:18:44.006Z,0.00
2019-04-30T01:19:45.994Z,0.00
2019-04-30T01:20:44.351Z,0.00
2019-04-30T01:21:46.979Z,0.00
2019-04-30T01:22:44.059Z,0.00
2019-04-30T01:23:51.712Z,0.00
2019-04-30T01:24:44.171Z,0.00
2019-04-30T01:25:49.899Z,0.00
2019-04-30T01:26:44.241Z,0.00
2019-04-30T01:27:45.875Z,0.00
2019-04-30T01:28:44.303Z,0.00
2019-04-30T01:29:44.489Z,0.00
2019-04-30T01:30:44.314Z,0.00
2019-04-30T01:31:44.399Z,0.00
2019-04-30T01:32:44.427Z,0.00
2019-04-30T01:34:49.858Z,0.00
2019-04-30T01:35:44.529Z,0.00
2019-04-30T01:37:44.590Z,0.00
2019-04-30T01:38:44.741Z,0.00
2019-04-30T01:39:44.671Z,0.00
2019-04-30T01:40:47.543Z,0.00
2019-04-30T01:41:45.017Z,0.00
2019-04-30T01:42:48.631Z,0.00
2019-04-30T01:43:44.738Z,0.00
2019-04-30T01:44:50.492Z,0.00
2019-04-30T01:45:44.797Z,0.00
2019-04-30T01:46:50.346Z,0.00
2019-04-30T01:47:44.865Z,0.00
2019-04-30T01:48:50.557Z,0.00
2019-04-30T01:49:44.970Z,0.00
2019-04-30T01:50:45.017Z,0.00
2019-04-30T01:51:45.000Z,0.00
2019-04-30T01:52:45.111Z,0.00
2019-04-30T01:53:45.054Z,0.00
2019-04-30T01:54:45.083Z,0.00
2019-04-30T01:55:45.468Z,0.00
2019-04-30T01:56:45.200Z,0.00
2019-04-30T01:57:45.225Z,0.00
2019-04-30T01:58:45.267Z,0.00
2019-04-30T01:59:45.265Z,0.00
2019-04-30T02:00:45.329Z,0.00
2019-04-30T02:01:45.610Z,0.00
2019-04-30T02:02:45.339Z,0.00
2019-04-30T02:03:45.365Z,0.00
2019-04-30T02:04:45.452Z,0.00
2019-04-30T02:05:45.479Z,0.00
2019-04-30T02:06:45.513Z,0.00
2019-04-30T02:07:46.107Z,0.00
2019-04-30T02:08:45.579Z,0.00
2019-04-30T02:09:45.560Z,0.00
2019-04-30T02:10:45.691Z,0.00
2019-04-30T02:11:45.626Z,0.00
2019-04-30T02:12:45.651Z,0.00
2019-04-30T02:13:46.043Z,0.00
2019-04-30T02:14:45.723Z,0.00
2019-04-30T02:16:45.782Z,0.00
2019-04-30T02:17:45.810Z,0.00
2019-04-30T02:18:46.004Z,0.00
2019-04-30T02:19:56.467Z,0.00
2019-04-30T02:20:45.994Z,0.00
2019-04-30T02:21:46.041Z,0.00
2019-04-30T02:22:46.025Z,0.00
2019-04-30T02:23:46.056Z,0.00
2019-04-30T02:24:46.035Z,0.00
2019-04-30T02:25:46.112Z,0.00
2019-04-30T02:26:48.384Z,0.00
2019-04-30T02:27:46.182Z,0.00
2019-04-30T02:28:46.166Z,0.00
2019-04-30T02:30:46.274Z,0.00
2019-04-30T02:31:46.311Z,0.00
2019-04-30T02:32:46.343Z,0.00
2019-04-30T02:34:46.412Z,0.00
2019-04-30T02:35:46.435Z,0.00
2019-04-30T02:36:46.466Z,0.00
2019-04-30T02:37:46.447Z,0.00
2019-04-30T02:38:49.247Z,0.00
2019-04-30T02:39:46.864Z,0.00
2019-04-30T02:40:46.604Z,0.00
2019-04-30T02:41:47.033Z,0.00
2019-04-30T02:42:49.659Z,0.00
2019-04-30T02:43:46.693Z,0.00
2019-04-30T02:44:46.670Z,0.00
2019-04-30T02:45:46.724Z,0.00
2019-04-30T02:47:49.899Z,0.00
2019-04-30T02:48:46.795Z,0.00
2019-04-30T02:49:52.918Z,0.00
2019-04-30T02:50:49.068Z,0.00
2019-04-30T02:51:49.717Z,0.00
2019-04-30T02:52:46.972Z,0.00
2019-04-30T02:53:46.969Z,0.00
2019-04-30T02:54:49.868Z,0.00
2019-04-30T02:55:49.839Z,0.00
2019-04-30T02:56:47.114Z,0.00
2019-04-30T02:57:49.727Z,0.00
2019-04-30T02:58:47.138Z,0.00
2019-04-30T02:59:49.624Z,0.00
2019-04-30T03:00:49.527Z,0.00
2019-04-30T03:01:50.264Z,0.00
2019-04-30T03:02:47.241Z,0.00
2019-04-30T03:03:49.922Z,0.00
2019-04-30T03:04:50.118Z,0.00
2019-04-30T03:05:49.691Z,0.00
2019-04-30T03:06:49.960Z,0.00
2019-04-30T03:07:53.022Z,0.00
2019-04-30T03:08:50.674Z,0.00
2019-04-30T03:09:49.964Z,0.00
2019-04-30T03:10:49.966Z,0.00
2019-04-30T03:11:49.825Z,0.00
2019-04-30T03:12:49.903Z,0.00
2019-04-30T03:14:49.742Z,0.00
2019-04-30T03:15:49.335Z,0.00
2019-04-30T03:16:52.515Z,0.00
2019-04-30T03:17:50.378Z,0.00
2019-04-30T03:18:49.906Z,0.00
2019-04-30T03:20:49.749Z,0.00
2019-04-30T03:21:50.216Z,0.00
2019-04-30T03:22:47.898Z,0.00
2019-04-30T03:25:50.132Z,0.00
2019-04-30T03:26:50.010Z,0.00
2019-04-30T03:27:49.867Z,0.00
2019-04-30T03:28:49.313Z,0.00
2019-04-30T03:29:50.372Z,0.00
2019-04-30T03:30:51.914Z,0.00
2019-04-30T03:31:51.859Z,0.00
2019-04-30T03:32:55.963Z,0.00
2019-04-30T03:33:52.258Z,0.00
2019-04-30T03:34:51.680Z,0.00
2019-04-30T03:35:54.258Z,0.00
2019-04-30T03:36:50.430Z,0.00
2019-04-30T03:37:49.710Z,0.00
2019-04-30T03:38:50.093Z,0.00
2019-04-30T03:39:49.367Z,0.00
2019-04-30T03:40:50.279Z,0.00
2019-04-30T03:41:50.160Z,0.00
2019-04-30T03:42:49.407Z,0.00
2019-04-30T03:43:50.354Z,0.00
2019-04-30T03:44:49.647Z,0.00
2019-04-30T03:45:49.939Z,0.00
2019-04-30T03:46:49.801Z,0.00
2019-04-30T03:47:50.410Z,0.00
2019-04-30T03:48:50.355Z,0.00
2019-04-30T03:49:49.949Z,0.00
2019-04-30T03:50:55.788Z,0.00
2019-04-30T03:51:49.880Z,0.00
2019-04-30T03:52:50.398Z,0.00
2019-04-30T03:53:50.168Z,0.00
2019-04-30T03:54:49.532Z,0.00
2019-04-30T03:55:50.557Z,0.00
2019-04-30T03:56:50.121Z,0.00
2019-04-30T03:57:51.880Z,0.00
2019-04-30T03:58:50.359Z,0.00
2019-04-30T03:59:49.973Z,0.00
2019-04-30T04:00:50.262Z,0.00
2019-04-30T04:01:49.740Z,0.00
2019-04-30T04:02:50.213Z,0.00
2019-04-30T04:03:49.904Z,0.00
2019-04-30T04:04:52.474Z,0.00
2019-04-30T04:05:49.798Z,0.00
2019-04-30T04:06:49.380Z,0.00
2019-04-30T04:07:52.909Z,0.00
2019-04-30T04:08:49.372Z,0.00
2019-04-30T04:09:50.028Z,0.00
2019-04-30T04:10:50.214Z,0.00
2019-04-30T04:11:50.927Z,0.00
2019-04-30T04:12:49.978Z,0.00
2019-04-30T04:13:49.646Z,0.00
2019-04-30T04:14:50.918Z,0.00
2019-04-30T04:15:50.044Z,0.00
2019-04-30T04:16:50.828Z,0.00
2019-04-30T04:17:50.365Z,0.00
2019-04-30T04:18:50.215Z,0.00
2019-04-30T04:19:49.672Z,0.00
2019-04-30T04:20:52.046Z,0.00
2019-04-30T04:21:51.016Z,0.00
2019-04-30T04:22:49.986Z,0.00
2019-04-30T04:23:49.849Z,0.00
2019-04-30T04:24:50.607Z,0.00
2019-04-30T04:25:50.109Z,0.00
2019-04-30T04:26:50.381Z,0.00
2019-04-30T04:27:51.104Z,0.00
2019-04-30T04:28:49.994Z,0.00
2019-04-30T04:29:50.879Z,0.00
2019-04-30T04:30:50.798Z,0.00
2019-04-30T04:31:50.503Z,0.00
2019-04-30T04:32:50.349Z,0.00
2019-04-30T04:33:52.826Z,0.00
2019-04-30T04:34:50.802Z,0.00
2019-04-30T04:35:50.211Z,0.00
2019-04-30T04:36:50.858Z,0.00
2019-04-30T04:37:50.274Z,5.63
2019-04-30T04:38:50.850Z,5.63
2019-04-30T04:41:50.679Z,5.63
2019-04-30T04:42:50.382Z,5.63
2019-04-30T04:43:50.694Z,5.63
2019-04-30T04:44:50.608Z,5.63
2019-04-30T04:45:50.522Z,5.63
2019-04-30T04:46:50.818Z,5.63
2019-04-30T04:47:50.844Z,5.63
2019-04-30T04:48:50.614Z,5.63
2019-04-30T04:49:53.755Z,5.63
2019-04-30T04:50:50.642Z,5.63
2019-04-30T04:51:50.729Z,5.63
2019-04-30T04:52:50.698Z,5.63
2019-04-30T04:53:51.087Z,5.63
2019-04-30T04:54:51.181Z,5.63
2019-04-30T04:55:50.838Z,11.25
2019-04-30T04:57:50.851Z,11.25
2019-04-30T04:58:50.931Z,11.25
2019-04-30T04:59:50.974Z,11.25
2019-04-30T05:00:51.297Z,11.25
2019-04-30T05:01:50.989Z,11.25
2019-04-30T05:02:51.016Z,11.25
2019-04-30T05:03:51.092Z,11.25
2019-04-30T05:04:51.074Z,11.25
2019-04-30T05:05:51.159Z,11.25
2019-04-30T05:06:51.137Z,11.25
2019-04-30T05:07:51.516Z,11.25
2019-04-30T05:08:51.245Z,11.25
2019-04-30T05:09:51.226Z,11.25
2019-04-30T05:10:51.266Z,11.25
2019-04-30T05:12:51.369Z,16.88
2019-04-30T05:13:51.352Z,16.88
2019-04-30T05:14:51.681Z,16.88
2019-04-30T05:15:51.687Z,16.88
2019-04-30T05:16:51.448Z,16.88
2019-04-30T05:17:51.530Z,16.88
2019-04-30T05:19:51.600Z,16.88
2019-04-30T05:20:51.579Z,16.88
2019-04-30T05:21:52.015Z,16.88
2019-04-30T05:22:51.693Z,16.88
2019-04-30T05:23:51.715Z,16.88
2019-04-30T05:24:51.764Z,16.88
2019-04-30T05:25:51.736Z,16.88
2019-04-30T05:26:51.810Z,16.88
2019-04-30T05:27:51.945Z,16.88
2019-04-30T05:28:52.938Z,16.88
2019-04-30T05:30:52.040Z,22.50
2019-04-30T05:31:51.978Z,22.50
2019-04-30T05:32:52.005Z,22.50
2019-04-30T05:33:51.983Z,22.50
2019-04-30T05:34:52.034Z,22.50
2019-04-30T05:35:52.390Z,22.50
2019-04-30T05:36:52.071Z,22.50
2019-04-30T05:37:52.152Z,22.50
2019-04-30T05:38:52.186Z,22.50
2019-04-30T05:39:52.221Z,22.50
2019-04-30T05:40:52.218Z,22.50
2019-04-30T05:41:52.289Z,22.50
2019-04-30T05:42:52.621Z,28.13
2019-04-30T05:43:52.364Z,28.13
2019-04-30T05:44:52.380Z,28.13
2019-04-30T05:45:52.406Z,28.13
2019-04-30T05:46:52.391Z,28.13
2019-04-30T05:47:52.468Z,28.13
2019-04-30T05:48:52.510Z,28.13
2019-04-30T05:49:52.783Z,28.13
2019-04-30T05:50:52.517Z,28.13
2019-04-30T05:51:55.686Z,28.13
2019-04-30T05:52:52.575Z,33.75
2019-04-30T05:53:52.663Z,33.75
2019-04-30T05:54:52.689Z,33.75
2019-04-30T05:55:52.829Z,33.75
2019-04-30T05:56:52.699Z,33.75
2019-04-30T05:57:56.149Z,33.75
2019-04-30T05:58:52.763Z,33.75
2019-04-30T05:59:52.855Z,33.75
2019-04-30T06:00:52.879Z,28.13
2019-04-30T06:01:52.877Z,28.13
2019-04-30T06:02:52.892Z,28.13
2019-04-30T06:04:53.006Z,28.13
2019-04-30T06:05:53.142Z,28.13
2019-04-30T06:06:53.165Z,33.75
2019-04-30T06:07:55.331Z,33.75
2019-04-30T06:08:53.444Z,33.75
2019-04-30T06:09:53.166Z,33.75
2019-04-30T06:11:05.888Z,33.75
2019-04-30T06:11:53.229Z,28.13
2019-04-30T06:12:53.258Z,28.13
2019-04-30T06:13:53.236Z,33.75
2019-04-30T06:14:53.571Z,33.75
2019-04-30T06:15:53.304Z,33.75
2019-04-30T06:16:53.393Z,33.75
2019-04-30T06:18:00.343Z,33.75
2019-04-30T06:18:53.450Z,28.13
2019-04-30T06:20:53.512Z,28.13
2019-04-30T06:22:04.921Z,28.13
2019-04-30T06:22:53.557Z,33.75
2019-04-30T06:23:53.607Z,33.75
2019-04-30T06:24:53.584Z,33.75
2019-04-30T06:25:59.580Z,33.75
2019-04-30T06:26:53.698Z,33.75
2019-04-30T06:27:54.045Z,33.75
2019-04-30T06:28:54.065Z,33.75
2019-04-30T06:29:53.753Z,33.75
2019-04-30T06:30:53.825Z,33.75
2019-04-30T06:31:53.810Z,33.75
2019-04-30T06:32:53.887Z,39.38
2019-04-30T06:33:53.874Z,39.38
2019-04-30T06:34:54.211Z,33.75
2019-04-30T06:35:54.001Z,33.75
2019-04-30T06:36:55.655Z,33.75
2019-04-30T06:37:54.158Z,28.13
2019-04-30T06:38:54.082Z,28.13
2019-04-30T06:39:54.110Z,22.50
2019-04-30T06:40:54.156Z,22.50
2019-04-30T06:42:04.229Z,22.50
2019-04-30T06:42:54.173Z,22.50
2019-04-30T06:43:54.252Z,22.50
2019-04-30T06:44:54.233Z,22.50
2019-04-30T06:45:54.255Z,22.50
2019-04-30T06:46:54.290Z,22.50
2019-04-30T06:47:54.370Z,22.50
2019-04-30T06:48:54.659Z,28.13
2019-04-30T06:49:54.381Z,28.13
2019-04-30T06:50:54.421Z,28.13
2019-04-30T06:51:54.511Z,28.13
2019-04-30T06:53:54.516Z,33.75
2019-04-30T06:54:54.542Z,39.38
2019-04-30T06:55:54.618Z,45.00
2019-04-30T06:56:54.659Z,50.63
2019-04-30T06:57:54.816Z,50.63
2019-04-30T06:58:54.719Z,56.25
2019-04-30T06:59:54.859Z,61.88
2019-04-30T07:00:54.782Z,67.50
2019-04-30T07:01:54.771Z,61.88
2019-04-30T07:02:54.813Z,61.88
2019-04-30T07:03:57.012Z,61.88
2019-04-30T07:04:54.859Z,61.88
2019-04-30T07:05:54.968Z,61.88
2019-04-30T07:06:55.075Z,67.50
2019-04-30T07:08:02.180Z,67.50
2019-04-30T07:08:57.001Z,67.50
2019-04-30T07:09:58.599Z,73.13
2019-04-30T07:10:59.922Z,73.13
2019-04-30T07:11:55.101Z,73.13
2019-04-30T07:12:55.113Z,67.50
2019-04-30T07:13:55.209Z,61.88
2019-04-30T07:14:55.176Z,61.88
2019-04-30T07:15:55.212Z,56.25
2019-04-30T07:16:55.298Z,56.25
2019-04-30T07:17:55.340Z,61.88
2019-04-30T07:18:55.361Z,61.88
2019-04-30T07:19:56.905Z,61.88
2019-04-30T07:20:55.375Z,56.25
2019-04-30T07:21:55.407Z,56.25
2019-04-30T07:23:00.770Z,56.25
2019-04-30T07:23:55.520Z,56.25
2019-04-30T07:24:55.556Z,56.25
2019-04-30T07:25:55.867Z,61.88
2019-04-30T07:27:00.973Z,61.88
2019-04-30T07:27:55.647Z,67.50
2019-04-30T07:29:55.730Z,67.50
2019-04-30T07:31:10.270Z,61.88
2019-04-30T07:31:55.730Z,61.88
2019-04-30T07:32:55.811Z,56.25
2019-04-30T07:33:55.795Z,56.25
2019-04-30T07:34:55.828Z,61.88
2019-04-30T07:35:55.910Z,61.88
2019-04-30T07:37:10.818Z,67.50
2019-04-30T07:38:03.360Z,67.50
2019-04-30T07:38:56.735Z,67.50
2019-04-30T07:39:55.982Z,67.50
2019-04-30T07:40:56.067Z,67.50
2019-04-30T07:41:56.051Z,73.13
2019-04-30T07:42:56.085Z,73.13
2019-04-30T07:43:56.268Z,78.75
2019-04-30T07:44:56.143Z,73.13
2019-04-30T07:45:56.531Z,73.13
2019-04-30T07:46:56.265Z,78.75
2019-04-30T07:47:56.293Z,84.38
2019-04-30T07:48:56.283Z,90.00
2019-04-30T07:49:56.363Z,84.38
2019-04-30T07:50:59.089Z,84.38
2019-04-30T07:51:56.970Z,90.00
2019-04-30T07:53:02.569Z,90.00
2019-04-30T07:54:56.531Z,101.25
2019-04-30T07:55:58.739Z,101.25
2019-04-30T07:56:56.549Z,106.88
2019-04-30T07:57:56.633Z,106.88
2019-04-30T07:58:56.660Z,106.88
2019-04-30T07:59:56.698Z,106.88
2019-04-30T08:00:59.172Z,106.88
2019-04-30T08:02:06.670Z,106.88
2019-04-30T08:02:59.713Z,106.88
2019-04-30T08:03:58.907Z,106.88
2019-04-30T08:04:56.847Z,101.25
2019-04-30T08:05:59.555Z,101.25
2019-04-30T08:06:56.900Z,101.25
2019-04-30T08:08:14.450Z,106.88
2019-04-30T08:09:38.336Z,106.88
2019-04-30T08:09:59.013Z,101.25
2019-04-30T08:10:58.876Z,101.25
2019-04-30T08:11:59.002Z,101.25
2019-04-30T08:13:08.347Z,95.63
2019-04-30T08:13:59.086Z,95.63
2019-04-30T08:14:59.329Z,95.63
2019-04-30T08:15:57.165Z,95.63
2019-04-30T08:16:58.928Z,90.00
2019-04-30T08:18:03.615Z,95.63
2019-04-30T08:18:59.110Z,95.63
2019-04-30T08:19:58.822Z,90.00
2019-04-30T08:20:58.676Z,84.38
2019-04-30T08:21:58.580Z,78.75
2019-04-30T08:23:03.058Z,78.75
2019-04-30T08:23:59.372Z,84.38
2019-04-30T08:24:58.704Z,84.38
2019-04-30T08:25:58.775Z,90.00
2019-04-30T08:26:59.066Z,90.00
2019-04-30T08:27:59.145Z,90.00
2019-04-30T08:28:59.636Z,95.63
2019-04-30T08:29:59.222Z,95.63
2019-04-30T08:31:59.322Z,90.00
2019-04-30T08:32:59.530Z,84.38
2019-04-30T08:36:00.815Z,73.13
2019-04-30T08:36:59.474Z,73.13
2019-04-30T08:37:59.057Z,73.13
2019-04-30T08:38:59.713Z,73.13
2019-04-30T08:40:00.195Z,73.13
2019-04-30T08:41:00.649Z,78.75
2019-04-30T08:41:59.935Z,78.75
2019-04-30T08:42:59.466Z,78.75
2019-04-30T08:43:59.750Z,84.38
2019-04-30T08:44:58.607Z,78.75
2019-04-30T08:45:59.514Z,73.13
2019-04-30T08:46:59.082Z,67.50
2019-04-30T08:47:59.019Z,67.50
2019-04-30T08:48:58.883Z,61.88
2019-04-30T08:49:59.473Z,61.88
2019-04-30T08:50:59.173Z,61.88
2019-04-30T08:51:58.744Z,61.88
2019-04-30T08:52:59.795Z,61.88
2019-04-30T08:53:58.799Z,61.88
2019-04-30T08:55:12.673Z,61.88
2019-04-30T08:55:59.109Z,61.88
2019-04-30T08:56:59.493Z,61.88
2019-04-30T08:58:09.325Z,61.88
2019-04-30T08:58:59.420Z,61.88
2019-04-30T08:59:58.706Z,61.88
2019-04-30T09:00:58.894Z,61.88
2019-04-30T09:02:00.079Z,67.50
2019-04-30T09:02:59.370Z,61.88
2019-04-30T09:03:59.785Z,61.88
2019-04-30T09:05:00.514Z,61.88
2019-04-30T09:06:59.984Z,67.50
2019-04-30T09:07:59.852Z,73.13
2019-04-30T09:08:59.406Z,78.75
2019-04-30T09:10:01.279Z,84.38
2019-04-30T09:10:59.532Z,84.38
2019-04-30T09:11:59.324Z,78.75
2019-04-30T09:12:59.746Z,78.75
2019-04-30T09:13:59.284Z,78.75
2019-04-30T09:14:59.210Z,78.75
2019-04-30T09:15:59.462Z,78.75
2019-04-30T09:16:59.670Z,84.38
2019-04-30T09:18:05.896Z,84.38
2019-04-30T09:18:59.630Z,84.38
2019-04-30T09:19:59.331Z,84.38
2019-04-30T09:21:05.952Z,78.75
2019-04-30T09:21:59.401Z,84.38
2019-04-30T09:22:59.679Z,95.63
2019-04-30T09:23:59.614Z,95.63
2019-04-30T09:24:59.510Z,90.00
2019-04-30T09:25:59.485Z,78.75
2019-04-30T09:26:59.521Z,73.13
2019-04-30T09:27:59.606Z,67.50
2019-04-30T09:28:59.698Z,67.50
2019-04-30T09:29:59.629Z,67.50
2019-04-30T09:31:59.737Z,67.50
2019-04-30T09:33:00.020Z,67.50
2019-04-30T09:34:00.975Z,73.13
2019-04-30T09:34:59.784Z,73.13
2019-04-30T09:35:59.970Z,73.13
2019-04-30T09:36:59.915Z,73.13
2019-04-30T09:38:01.998Z,73.13
2019-04-30T09:39:01.418Z,73.13
2019-04-30T09:40:00.006Z,78.75
2019-04-30T09:41:00.140Z,84.38
2019-04-30T09:42:00.023Z,84.38
2019-04-30T09:43:00.468Z,84.38
2019-04-30T09:44:00.146Z,84.38
2019-04-30T09:45:00.436Z,84.38
2019-04-30T09:46:00.202Z,90.00
2019-04-30T09:47:00.194Z,90.00
2019-04-30T09:48:00.227Z,90.00
2019-04-30T09:49:00.305Z,84.38
2019-04-30T09:50:00.295Z,84.38
2019-04-30T09:51:01.260Z,84.38
2019-04-30T09:52:00.905Z,78.75
2019-04-30T09:53:01.011Z,78.75
2019-04-30T09:54:03.328Z,73.13
2019-04-30T09:55:00.850Z,67.50
2019-04-30T09:56:00.549Z,61.88
2019-04-30T09:57:00.591Z,61.88
2019-04-30T09:58:00.609Z,67.50
2019-04-30T09:59:00.596Z,67.50
2019-04-30T10:00:00.706Z,67.50
2019-04-30T10:01:00.714Z,67.50
2019-04-30T10:02:00.709Z,67.50
2019-04-30T10:03:00.996Z,73.13
2019-04-30T10:04:01.233Z,73.13
2019-04-30T10:05:01.327Z,73.13
2019-04-30T10:06:00.969Z,67.50
2019-04-30T10:07:00.874Z,67.50
2019-04-30T10:08:00.907Z,67.50
2019-04-30T10:09:00.938Z,67.50
2019-04-30T10:10:01.033Z,67.50
2019-04-30T10:11:01.001Z,67.50
2019-04-30T10:12:01.085Z,67.50
2019-04-30T10:13:01.119Z,67.50
2019-04-30T10:14:01.093Z,73.13
2019-04-30T10:15:01.491Z,73.13
2019-04-30T10:16:01.216Z,73.13
2019-04-30T10:17:01.249Z,78.75
2019-04-30T10:18:01.227Z,78.75
2019-04-30T10:19:01.479Z,78.75
2019-04-30T10:20:01.314Z,78.75
2019-04-30T10:21:01.386Z,73.13
2019-04-30T10:22:01.365Z,73.13
2019-04-30T10:23:01.455Z,78.75
2019-04-30T10:24:12.418Z,78.75
2019-04-30T10:25:01.517Z,78.75
2019-04-30T10:26:01.521Z,78.75
2019-04-30T10:27:01.543Z,78.75
2019-04-30T10:28:01.638Z,78.75
2019-04-30T10:29:01.670Z,73.13
2019-04-30T10:30:01.636Z,78.75
2019-04-30T10:31:01.666Z,78.75
2019-04-30T10:32:01.870Z,90.00
2019-04-30T10:33:01.795Z,90.00
2019-04-30T10:34:01.768Z,90.00
2019-04-30T10:35:01.800Z,90.00
2019-04-30T10:36:01.844Z,90.00
2019-04-30T10:38:01.998Z,90.00
2019-04-30T10:39:02.019Z,90.00
2019-04-30T10:40:02.039Z,95.63
2019-04-30T10:41:02.022Z,95.63
2019-04-30T10:42:02.093Z,95.63
2019-04-30T10:44:02.178Z,101.25
2019-04-30T10:45:02.192Z,101.25
2019-04-30T10:46:02.238Z,101.25
2019-04-30T10:47:02.222Z,106.88
2019-04-30T10:48:02.290Z,101.25
2019-04-30T10:49:02.343Z,106.88
2019-04-30T10:50:02.312Z,101.25
2019-04-30T10:51:02.430Z,95.63
2019-04-30T10:52:02.379Z,101.25
2019-04-30T10:53:02.465Z,101.25
2019-04-30T10:54:02.504Z,101.25
2019-04-30T10:55:04.566Z,95.63
2019-04-30T10:56:02.608Z,95.63
2019-04-30T10:57:02.572Z,90.00
2019-04-30T10:58:02.634Z,90.00
2019-04-30T10:59:02.617Z,95.63
2019-04-30T11:00:02.696Z,101.25
2019-04-30T11:01:02.876Z,106.88
2019-04-30T11:02:02.715Z,106.88
2019-04-30T11:03:02.801Z,112.50
2019-04-30T11:04:02.833Z,106.88
2019-04-30T11:05:02.816Z,101.25
2019-04-30T11:06:02.865Z,95.63
2019-04-30T11:07:02.883Z,90.00
2019-04-30T11:08:02.972Z,90.00
2019-04-30T11:09:02.998Z,90.00
2019-04-30T11:10:02.988Z,90.00
2019-04-30T11:11:03.367Z,101.25
2019-04-30T11:12:03.281Z,101.25
2019-04-30T11:14:03.173Z,106.88
2019-04-30T11:15:03.202Z,112.50
2019-04-30T11:16:12.562Z,112.50
2019-04-30T11:17:03.545Z,106.88
2019-04-30T11:18:03.420Z,95.63
2019-04-30T11:19:03.562Z,95.63
2019-04-30T11:20:03.553Z,106.88
2019-04-30T11:21:03.541Z,106.88
2019-04-30T11:22:03.752Z,95.63
2019-04-30T11:23:13.866Z,101.25
2019-04-30T11:24:03.546Z,112.50
2019-04-30T11:25:03.763Z,106.88
2019-04-30T11:26:04.134Z,112.50
2019-04-30T11:27:03.959Z,123.75
2019-04-30T11:28:04.285Z,135.00
2019-04-30T11:29:03.874Z,140.63
2019-04-30T11:30:04.382Z,140.63
2019-04-30T11:31:03.870Z,140.63
2019-04-30T11:32:04.069Z,135.00
2019-04-30T11:33:04.043Z,135.00
2019-04-30T11:34:03.860Z,129.38
2019-04-30T11:35:03.835Z,135.00
2019-04-30T11:36:05.044Z,135.00
2019-04-30T11:37:03.951Z,140.63
2019-04-30T11:38:03.960Z,151.88
2019-04-30T11:39:03.974Z,151.88
2019-04-30T11:40:04.065Z,140.63
2019-04-30T11:41:04.044Z,140.63
2019-04-30T11:42:04.429Z,146.25
2019-04-30T11:44:04.192Z,146.25
2019-04-30T11:45:04.236Z,151.88
2019-04-30T11:46:04.262Z,163.13
2019-04-30T11:47:04.309Z,168.75
2019-04-30T11:48:04.634Z,168.75
2019-04-30T11:49:04.476Z,157.50
2019-04-30T11:50:04.504Z,157.50
2019-04-30T11:51:04.531Z,163.13
2019-04-30T11:52:04.468Z,163.13
2019-04-30T11:53:19.509Z,157.50
2019-04-30T11:54:04.886Z,151.88
2019-04-30T11:55:04.571Z,146.25
2019-04-30T11:56:04.608Z,151.88
2019-04-30T11:57:04.598Z,146.25
2019-04-30T11:58:04.676Z,157.50
2019-04-30T11:59:04.707Z,157.50
2019-04-30T12:00:04.697Z,163.13
2019-04-30T12:01:05.070Z,174.38
2019-04-30T12:02:04.822Z,168.75
2019-04-30T12:03:04.800Z,140.63
2019-04-30T12:04:05.181Z,151.88
2019-04-30T12:06:04.947Z,163.13
2019-04-30T12:07:04.975Z,151.88
2019-04-30T12:08:05.260Z,163.13
2019-04-30T12:09:04.996Z,157.50
2019-04-30T12:10:05.121Z,174.38
2019-04-30T12:11:05.067Z,185.63
2019-04-30T12:12:05.218Z,191.25
2019-04-30T12:13:05.221Z,191.25
2019-04-30T12:14:05.173Z,208.13
2019-04-30T12:15:05.202Z,202.50
2019-04-30T12:16:05.235Z,185.63
2019-04-30T12:17:05.424Z,168.75
2019-04-30T12:18:05.321Z,174.38
2019-04-30T12:19:05.346Z,191.25
2019-04-30T12:20:05.376Z,191.25
2019-04-30T12:21:05.463Z,191.25
2019-04-30T12:22:05.499Z,180.00
2019-04-30T12:23:05.535Z,174.38
2019-04-30T12:24:05.575Z,174.38
2019-04-30T12:25:05.685Z,174.38
2019-04-30T12:26:05.594Z,174.38
2019-04-30T12:27:05.914Z,174.38
2019-04-30T12:28:05.696Z,174.38
2019-04-30T12:29:05.690Z,168.75
2019-04-30T12:30:05.769Z,174.38
2019-04-30T12:31:06.075Z,180.00
2019-04-30T12:32:05.791Z,196.88
2019-04-30T12:33:05.818Z,202.50
2019-04-30T12:34:05.860Z,202.50
2019-04-30T12:35:05.958Z,208.13
2019-04-30T12:36:06.504Z,208.13
2019-04-30T12:37:06.011Z,208.13
2019-04-30T12:38:05.993Z,202.50
2019-04-30T12:39:06.334Z,196.88
2019-04-30T12:40:06.117Z,180.00
2019-04-30T12:41:06.101Z,202.50
2019-04-30T12:43:06.224Z,196.88
2019-04-30T12:44:06.260Z,202.50
2019-04-30T12:45:06.247Z,208.13
2019-04-30T12:46:06.575Z,202.50
2019-04-30T12:47:06.306Z,225.00
2019-04-30T12:48:06.351Z,241.88
2019-04-30T12:49:06.431Z,241.88
2019-04-30T12:51:06.447Z,253.13
2019-04-30T12:53:06.574Z,253.13
2019-04-30T12:54:06.563Z,219.38
2019-04-30T12:55:15.191Z,348.75
2019-04-30T12:56:08.840Z,365.63
2019-04-30T12:57:06.788Z,371.25
2019-04-30T12:58:06.798Z,365.63
2019-04-30T12:59:06.723Z,393.75
2019-04-30T13:00:07.061Z,264.38
2019-04-30T13:01:08.937Z,450.00
2019-04-30T13:02:09.011Z,393.75
2019-04-30T13:03:06.922Z,230.63
2019-04-30T13:04:06.956Z,202.50
2019-04-30T13:05:08.808Z,185.63
2019-04-30T13:06:07.691Z,191.25
2019-04-30T13:07:09.876Z,489.38
2019-04-30T13:08:09.319Z,517.50
2019-04-30T13:09:10.318Z,568.13
2019-04-30T13:10:07.643Z,562.50
2019-04-30T13:11:07.510Z,596.25
2019-04-30T13:12:09.903Z,624.38
2019-04-30T13:13:07.737Z,405.00
2019-04-30T13:14:10.120Z,562.50
2019-04-30T13:15:07.352Z,247.50
2019-04-30T13:16:08.524Z,230.63
2019-04-30T13:17:07.473Z,540.00
2019-04-30T13:19:09.186Z,618.75
2019-04-30T13:20:18.157Z,230.63
2019-04-30T13:21:08.567Z,208.13
2019-04-30T13:22:09.064Z,270.00
2019-04-30T13:23:08.747Z,545.63
2019-04-30T13:24:07.652Z,708.75
2019-04-30T13:26:08.939Z,680.63
2019-04-30T13:28:08.111Z,230.63
2019-04-30T13:29:07.843Z,219.38
2019-04-30T13:30:07.831Z,241.88
2019-04-30T13:31:09.297Z,551.25
2019-04-30T13:32:08.640Z,613.13
2019-04-30T13:34:08.534Z,275.63
2019-04-30T13:35:09.288Z,270.00
2019-04-30T13:36:08.783Z,562.50
2019-04-30T13:37:09.303Z,264.38
2019-04-30T13:38:08.123Z,253.13